sensor_id;sensor_type;location;lat;lon;timestamp;P1;P2;P0
65360;PMS5003;51958;55.018;73.536;2022-08-07T00:00:46;41.67;35.00;23.00
65360;PMS5003;51958;55.018;73.536;2022-08-07T00:03:12;41.67;35.00;23.00
65360;PMS5003;51958;55.018;73.536;2022-08-07T00:05:42;43.75;37.75;25.00
65360;PMS5003;51958;55.018;73.536;2022-08-07T00:08:08;44.00;38.00;25.00
65360;PMS5003;51958;55.018;73.536;2022-08-07T00:10:34;45.00;38.00;25.00
65360;PMS5003;51958;55.018;73.536;2022-08-07T00:13:01;44.50;38.00;24.75
65360;PMS5003;51958;55.018;73.536;2022-08-07T00:15:30;43.50;37.25;24.00
65360;PMS5003;51958;55.018;73.536;2022-08-07T00:17:56;44.50;37.00;24.00
65360;PMS5003;51958;55.018;73.536;2022-08-07T00:20:22;43.67;36.33;24.00
65360;PMS5003;51958;55.018;73.536;2022-08-07T00:22:48;43.67;36.33;25.00
65360;PMS5003;51958;55.018;73.536;2022-08-07T00:25:18;41.25;35.00;23.25
65360;PMS5003;51958;55.018;73.536;2022-08-07T00:27:44;43.67;37.33;25.00
65360;PMS5003;51958;55.018;73.536;2022-08-07T00:30:10;44.00;38.00;26.00
65360;PMS5003;51958;55.018;73.536;2022-08-07T00:32:36;42.00;36.00;25.00
65360;PMS5003;51958;55.018;73.536;2022-08-07T00:35:02;42.67;36.67;24.00
65360;PMS5003;51958;55.018;73.536;2022-08-07T00:37:28;42.00;36.00;24.00
65360;PMS5003;51958;55.018;73.536;2022-08-07T00:39:59;42.25;36.00;24.00
65360;PMS5003;51958;55.018;73.536;2022-08-07T00:42:24;43.67;36.33;23.00
65360;PMS5003;51958;55.018;73.536;2022-08-07T00:44:50;47.00;37.00;25.00
65360;PMS5003;51958;55.018;73.536;2022-08-07T00:47:16;46.00;38.00;25.00
65360;PMS5003;51958;55.018;73.536;2022-08-07T00:49:42;44.00;37.67;26.00
65360;PMS5003;51958;55.018;73.536;2022-08-07T00:52:08;45.67;39.00;26.00
65360;PMS5003;51958;55.018;73.536;2022-08-07T00:54:35;46.00;39.00;26.00
65360;PMS5003;51958;55.018;73.536;2022-08-07T00:57:01;46.00;39.00;26.00
65360;PMS5003;51958;55.018;73.536;2022-08-07T00:59:27;46.00;39.00;26.00
65360;PMS5003;51958;55.018;73.536;2022-08-07T01:01:59;49.00;40.25;27.00
65360;PMS5003;51958;55.018;73.536;2022-08-07T01:04:26;48.00;40.00;26.00
65360;PMS5003;51958;55.018;73.536;2022-08-07T01:07:02;49.00;41.00;26.00
65360;PMS5003;51958;55.018;73.536;2022-08-07T01:09:29;49.00;40.00;26.00
65360;PMS5003;51958;55.018;73.536;2022-08-07T01:11:59;49.00;41.00;27.00
65360;PMS5003;51958;55.018;73.536;2022-08-07T01:14:25;45.00;38.00;26.00
65360;PMS5003;51958;55.018;73.536;2022-08-07T01:16:52;44.00;38.00;26.00
65360;PMS5003;51958;55.018;73.536;2022-08-07T01:19:19;44.00;37.00;25.00
65360;PMS5003;51958;55.018;73.536;2022-08-07T01:21:45;42.25;36.00;25.00
65360;PMS5003;51958;55.018;73.536;2022-08-07T01:24:22;42.50;36.00;24.00
65360;PMS5003;51958;55.018;73.536;2022-08-07T01:26:49;45.00;37.00;25.00
65360;PMS5003;51958;55.018;73.536;2022-08-07T01:29:15;48.75;41.25;27.00
65360;PMS5003;51958;55.018;73.536;2022-08-07T01:31:41;50.67;42.00;27.33
65360;PMS5003;51958;55.018;73.536;2022-08-07T01:34:07;54.75;44.00;28.75
65360;PMS5003;51958;55.018;73.536;2022-08-07T01:36:33;54.75;44.00;29.00
65360;PMS5003;51958;55.018;73.536;2022-08-07T01:38:59;56.50;45.25;28.75
65360;PMS5003;51958;55.018;73.536;2022-08-07T01:41:35;57.00;45.00;29.50
65360;PMS5003;51958;55.018;73.536;2022-08-07T01:44:02;60.25;48.75;31.00
65360;PMS5003;51958;55.018;73.536;2022-08-07T01:46:28;62.00;49.00;32.00
65360;PMS5003;51958;55.018;73.536;2022-08-07T01:48:54;66.00;51.33;33.00
65360;PMS5003;51958;55.018;73.536;2022-08-07T01:51:25;70.00;56.75;34.75
65360;PMS5003;51958;55.018;73.536;2022-08-07T01:53:52;72.00;62.00;38.75
65360;PMS5003;51958;55.018;73.536;2022-08-07T01:58:58;80.50;74.50;46.50
65360;PMS5003;51958;55.018;73.536;2022-08-07T02:01:32;89.50;82.50;50.00
65360;PMS5003;51958;55.018;73.536;2022-08-07T02:04:08;92.75;88.00;53.25
65360;PMS5003;51958;55.018;73.536;2022-08-07T02:06:36;100.00;91.25;57.00
65360;PMS5003;51958;55.018;73.536;2022-08-07T02:09:06;105.00;95.25;57.75
65360;PMS5003;51958;55.018;73.536;2022-08-07T02:11:34;118.25;107.25;64.75
65360;PMS5003;51958;55.018;73.536;2022-08-07T02:14:07;122.00;110.75;66.50
65360;PMS5003;51958;55.018;73.536;2022-08-07T02:16:34;125.50;112.25;68.75
65360;PMS5003;51958;55.018;73.536;2022-08-07T02:19:12;122.00;111.00;67.25
65360;PMS5003;51958;55.018;73.536;2022-08-07T02:21:39;118.00;108.00;66.00
65360;PMS5003;51958;55.018;73.536;2022-08-07T02:24:07;116.75;108.50;65.75
65360;PMS5003;51958;55.018;73.536;2022-08-07T02:26:33;114.00;105.00;63.00
65360;PMS5003;51958;55.018;73.536;2022-08-07T02:29:04;111.25;101.00;58.75
65360;PMS5003;51958;55.018;73.536;2022-08-07T02:31:31;109.75;100.50;59.00
65360;PMS5003;51958;55.018;73.536;2022-08-07T02:34:03;106.00;96.25;57.00
65360;PMS5003;51958;55.018;73.536;2022-08-07T02:36:29;101.25;92.00;54.00
65360;PMS5003;51958;55.018;73.536;2022-08-07T02:38:56;99.25;90.75;53.25
65360;PMS5003;51958;55.018;73.536;2022-08-07T02:41:23;106.25;94.25;55.00
65360;PMS5003;51958;55.018;73.536;2022-08-07T02:43:50;103.25;93.25;55.50
65360;PMS5003;51958;55.018;73.536;2022-08-07T02:46:24;105.75;94.00;57.25
65360;PMS5003;51958;55.018;73.536;2022-08-07T02:48:56;108.25;98.50;58.00
65360;PMS5003;51958;55.018;73.536;2022-08-07T02:51:23;108.25;99.25;58.00
65360;PMS5003;51958;55.018;73.536;2022-08-07T02:53:49;105.50;95.50;57.00
65360;PMS5003;51958;55.018;73.536;2022-08-07T02:56:19;100.00;94.00;56.25
65360;PMS5003;51958;55.018;73.536;2022-08-07T02:58:46;102.50;94.00;57.00
65360;PMS5003;51958;55.018;73.536;2022-08-07T03:01:18;100.25;92.25;55.00
65360;PMS5003;51958;55.018;73.536;2022-08-07T03:03:47;99.00;89.50;52.00
65360;PMS5003;51958;55.018;73.536;2022-08-07T03:06:19;98.75;91.75;52.50
65360;PMS5003;51958;55.018;73.536;2022-08-07T03:08:47;100.25;93.75;54.75
65360;PMS5003;51958;55.018;73.536;2022-08-07T03:11:15;104.00;94.50;57.00
65360;PMS5003;51958;55.018;73.536;2022-08-07T03:13:42;100.50;92.75;55.00
65360;PMS5003;51958;55.018;73.536;2022-08-07T03:16:19;97.25;89.00;55.00
65360;PMS5003;51958;55.018;73.536;2022-08-07T03:18:50;97.00;91.00;53.75
65360;PMS5003;51958;55.018;73.536;2022-08-07T03:21:16;99.25;91.75;54.00
65360;PMS5003;51958;55.018;73.536;2022-08-07T03:23:42;96.25;89.00;52.00
65360;PMS5003;51958;55.018;73.536;2022-08-07T03:26:15;91.50;84.75;51.25
65360;PMS5003;51958;55.018;73.536;2022-08-07T03:28:53;96.75;90.00;53.50
65360;PMS5003;51958;55.018;73.536;2022-08-07T03:31:20;95.75;86.25;53.00
65360;PMS5003;51958;55.018;73.536;2022-08-07T03:33:57;93.25;84.00;51.50
65360;PMS5003;51958;55.018;73.536;2022-08-07T03:36:24;91.50;84.00;51.00
65360;PMS5003;51958;55.018;73.536;2022-08-07T03:38:51;88.50;82.00;50.00
65360;PMS5003;51958;55.018;73.536;2022-08-07T03:41:28;85.00;79.00;48.00
65360;PMS5003;51958;55.018;73.536;2022-08-07T03:43:58;85.25;78.00;45.00
65360;PMS5003;51958;55.018;73.536;2022-08-07T03:46:25;88.00;79.00;45.00
65360;PMS5003;51958;55.018;73.536;2022-08-07T03:48:51;86.50;78.00;47.00
65360;PMS5003;51958;55.018;73.536;2022-08-07T03:51:18;85.25;77.50;48.00
65360;PMS5003;51958;55.018;73.536;2022-08-07T03:53:45;87.25;79.00;47.50
65360;PMS5003;51958;55.018;73.536;2022-08-07T03:56:12;86.00;80.00;47.75
65360;PMS5003;51958;55.018;73.536;2022-08-07T03:58:39;89.25;79.50;47.25
65360;PMS5003;51958;55.018;73.536;2022-08-07T04:01:05;90.25;82.00;49.25
65360;PMS5003;51958;55.018;73.536;2022-08-07T04:03:43;87.75;82.50;49.25
65360;PMS5003;51958;55.018;73.536;2022-08-07T04:06:10;89.00;81.00;50.25
65360;PMS5003;51958;55.018;73.536;2022-08-07T04:08:42;90.50;82.00;50.75
65360;PMS5003;51958;55.018;73.536;2022-08-07T04:11:18;90.00;80.00;49.00
65360;PMS5003;51958;55.018;73.536;2022-08-07T04:13:55;91.00;80.50;50.75
65360;PMS5003;51958;55.018;73.536;2022-08-07T04:16:21;88.75;81.50;49.75
65360;PMS5003;51958;55.018;73.536;2022-08-07T04:18:47;91.00;81.75;49.25
65360;PMS5003;51958;55.018;73.536;2022-08-07T04:21:14;96.50;87.00;51.25
65360;PMS5003;51958;55.018;73.536;2022-08-07T04:23:40;90.50;82.00;49.75
65360;PMS5003;51958;55.018;73.536;2022-08-07T04:26:06;89.00;82.50;49.00
65360;PMS5003;51958;55.018;73.536;2022-08-07T04:28:32;87.75;81.50;48.25
65360;PMS5003;51958;55.018;73.536;2022-08-07T04:30:58;86.50;82.50;49.00
65360;PMS5003;51958;55.018;73.536;2022-08-07T04:33:25;86.25;81.00;49.50
65360;PMS5003;51958;55.018;73.536;2022-08-07T04:35:51;85.25;78.25;49.00
65360;PMS5003;51958;55.018;73.536;2022-08-07T04:38:17;86.00;79.25;47.50
65360;PMS5003;51958;55.018;73.536;2022-08-07T04:40:44;87.50;78.00;47.25
65360;PMS5003;51958;55.018;73.536;2022-08-07T04:43:16;88.75;80.25;47.50
65360;PMS5003;51958;55.018;73.536;2022-08-07T04:45:48;89.75;81.25;49.00
65360;PMS5003;51958;55.018;73.536;2022-08-07T04:48:27;87.75;79.75;48.75
65360;PMS5003;51958;55.018;73.536;2022-08-07T04:51:08;91.75;80.00;50.00
65360;PMS5003;51958;55.018;73.536;2022-08-07T04:53:41;88.00;79.75;48.75
65360;PMS5003;51958;55.018;73.536;2022-08-07T05:01:41;86.50;80.25;48.00
65360;PMS5003;51958;55.018;73.536;2022-08-07T05:07:08;86.50;81.00;47.00
65360;PMS5003;51958;55.018;73.536;2022-08-07T05:12:39;84.00;77.00;45.00
65360;PMS5003;51958;55.018;73.536;2022-08-07T05:15:10;78.50;73.00;44.50
65360;PMS5003;51958;55.018;73.536;2022-08-07T05:17:45;78.75;73.00;43.50
65360;PMS5003;51958;55.018;73.536;2022-08-07T05:20:23;77.75;73.00;45.25
65360;PMS5003;51958;55.018;73.536;2022-08-07T05:22:57;78.00;75.00;44.50
65360;PMS5003;51958;55.018;73.536;2022-08-07T05:25:24;79.00;72.25;43.00
65360;PMS5003;51958;55.018;73.536;2022-08-07T05:27:51;77.50;70.75;43.00
65360;PMS5003;51958;55.018;73.536;2022-08-07T05:30:17;77.00;69.00;43.00
65360;PMS5003;51958;55.018;73.536;2022-08-07T05:32:44;79.00;70.75;43.25
65360;PMS5003;51958;55.018;73.536;2022-08-07T05:35:17;78.00;71.25;43.25
65360;PMS5003;51958;55.018;73.536;2022-08-07T05:37:44;79.25;72.00;44.00
65360;PMS5003;51958;55.018;73.536;2022-08-07T05:40:10;79.00;73.00;42.00
65360;PMS5003;51958;55.018;73.536;2022-08-07T05:42:37;77.25;71.00;43.00
65360;PMS5003;51958;55.018;73.536;2022-08-07T05:45:06;78.00;72.25;43.00
65360;PMS5003;51958;55.018;73.536;2022-08-07T05:47:32;78.00;73.25;43.75
65360;PMS5003;51958;55.018;73.536;2022-08-07T05:49:58;76.00;70.50;41.50
65360;PMS5003;51958;55.018;73.536;2022-08-07T05:52:24;75.75;69.00;42.75
65360;PMS5003;51958;55.018;73.536;2022-08-07T05:54:50;76.75;69.00;42.75
65360;PMS5003;51958;55.018;73.536;2022-08-07T05:57:18;76.50;67.50;42.00
65360;PMS5003;51958;55.018;73.536;2022-08-07T05:59:45;77.00;69.00;42.25
65360;PMS5003;51958;55.018;73.536;2022-08-07T06:02:12;75.00;65.00;40.50
65360;PMS5003;51958;55.018;73.536;2022-08-07T06:04:41;73.00;61.50;38.00
65360;PMS5003;51958;55.018;73.536;2022-08-07T06:07:10;71.00;60.75;37.00
65360;PMS5003;51958;55.018;73.536;2022-08-07T06:09:44;72.00;62.50;37.00
65360;PMS5003;51958;55.018;73.536;2022-08-07T06:12:10;71.75;62.25;37.50
65360;PMS5003;51958;55.018;73.536;2022-08-07T06:14:35;71.25;63.00;37.00
65360;PMS5003;51958;55.018;73.536;2022-08-07T06:17:02;70.00;55.00;34.00
65360;PMS5003;51958;55.018;73.536;2022-08-07T06:19:28;69.00;55.00;34.00
65360;PMS5003;51958;55.018;73.536;2022-08-07T06:21:58;68.00;53.50;33.00
65360;PMS5003;51958;55.018;73.536;2022-08-07T06:24:25;66.00;53.00;33.00
65360;PMS5003;51958;55.018;73.536;2022-08-07T06:26:51;67.67;53.00;33.33
65360;PMS5003;51958;55.018;73.536;2022-08-07T06:29:16;67.00;52.67;33.00
65360;PMS5003;51958;55.018;73.536;2022-08-07T06:31:42;68.00;55.00;34.67
65360;PMS5003;51958;55.018;73.536;2022-08-07T06:34:08;66.00;52.00;33.00
65360;PMS5003;51958;55.018;73.536;2022-08-07T06:36:33;68.00;53.00;33.00
65360;PMS5003;51958;55.018;73.536;2022-08-07T06:38:59;68.00;54.00;33.00
65360;PMS5003;51958;55.018;73.536;2022-08-07T06:41:31;67.00;53.00;33.00
65360;PMS5003;51958;55.018;73.536;2022-08-07T06:44:09;66.00;52.00;33.00
65360;PMS5003;51958;55.018;73.536;2022-08-07T06:46:41;64.75;51.50;33.00
65360;PMS5003;51958;55.018;73.536;2022-08-07T06:49:09;64.25;51.00;32.25
65360;PMS5003;51958;55.018;73.536;2022-08-07T06:51:39;64.25;50.75;32.00
65360;PMS5003;51958;55.018;73.536;2022-08-07T06:54:08;64.75;51.00;32.25
65360;PMS5003;51958;55.018;73.536;2022-08-07T06:56:34;66.00;52.00;33.00
65360;PMS5003;51958;55.018;73.536;2022-08-07T06:59:19;63.50;50.00;32.00
65360;PMS5003;51958;55.018;73.536;2022-08-07T07:01:48;64.25;49.00;31.50
65360;PMS5003;51958;55.018;73.536;2022-08-07T07:04:15;64.00;49.50;32.00
65360;PMS5003;51958;55.018;73.536;2022-08-07T07:06:45;64.00;51.00;32.00
65360;PMS5003;51958;55.018;73.536;2022-08-07T07:11:55;64.50;50.50;32.00
65360;PMS5003;51958;55.018;73.536;2022-08-07T07:14:27;63.50;50.00;31.25
65360;PMS5003;51958;55.018;73.536;2022-08-07T07:16:58;66.00;50.25;32.00
65360;PMS5003;51958;55.018;73.536;2022-08-07T07:19:35;62.75;50.00;31.50
65360;PMS5003;51958;55.018;73.536;2022-08-07T07:22:12;61.75;50.00;31.75
65360;PMS5003;51958;55.018;73.536;2022-08-07T07:24:39;63.00;49.00;31.00
65360;PMS5003;51958;55.018;73.536;2022-08-07T07:27:06;65.00;50.75;31.25
65360;PMS5003;51958;55.018;73.536;2022-08-07T07:29:34;63.00;49.00;30.00
65360;PMS5003;51958;55.018;73.536;2022-08-07T07:32:02;61.00;49.00;31.00
65360;PMS5003;51958;55.018;73.536;2022-08-07T07:34:30;59.00;47.00;30.00
65360;PMS5003;51958;55.018;73.536;2022-08-07T07:36:57;59.00;46.00;29.00
65360;PMS5003;51958;55.018;73.536;2022-08-07T07:39:25;62.50;49.00;30.00
65360;PMS5003;51958;55.018;73.536;2022-08-07T07:42:01;65.00;51.00;32.00
65360;PMS5003;51958;55.018;73.536;2022-08-07T07:44:28;63.50;50.75;32.00
65360;PMS5003;51958;55.018;73.536;2022-08-07T07:46:55;65.00;51.00;32.75
65360;PMS5003;51958;55.018;73.536;2022-08-07T07:49:23;64.50;50.25;33.00
65360;PMS5003;51958;55.018;73.536;2022-08-07T07:51:50;63.25;50.00;32.00
65360;PMS5003;51958;55.018;73.536;2022-08-07T07:54:17;64.25;51.25;32.00
65360;PMS5003;51958;55.018;73.536;2022-08-07T07:56:44;65.00;52.00;32.00
65360;PMS5003;51958;55.018;73.536;2022-08-07T07:59:10;63.75;50.50;32.00
65360;PMS5003;51958;55.018;73.536;2022-08-07T08:01:39;63.00;49.00;30.00
65360;PMS5003;51958;55.018;73.536;2022-08-07T08:04:07;61.00;48.00;30.00
65360;PMS5003;51958;55.018;73.536;2022-08-07T08:06:40;60.00;48.25;30.00
65360;PMS5003;51958;55.018;73.536;2022-08-07T08:09:11;60.25;47.75;30.00
65360;PMS5003;51958;55.018;73.536;2022-08-07T08:11:39;64.50;50.75;32.00
65360;PMS5003;51958;55.018;73.536;2022-08-07T08:14:05;68.75;55.00;33.00
65360;PMS5003;51958;55.018;73.536;2022-08-07T08:16:31;70.75;56.25;34.50
65360;PMS5003;51958;55.018;73.536;2022-08-07T08:18:59;71.75;59.75;36.75
65360;PMS5003;51958;55.018;73.536;2022-08-07T08:21:25;72.25;61.50;37.00
65360;PMS5003;51958;55.018;73.536;2022-08-07T08:24:10;72.00;61.00;36.00
65360;PMS5003;51958;55.018;73.536;2022-08-07T08:26:58;72.25;60.25;35.25
65360;PMS5003;51958;55.018;73.536;2022-08-07T08:32:25;71.00;57.50;36.25
65360;PMS5003;51958;55.018;73.536;2022-08-07T08:34:52;71.00;58.75;36.25
65360;PMS5003;51958;55.018;73.536;2022-08-07T08:37:18;67.00;54.00;34.00
65360;PMS5003;51958;55.018;73.536;2022-08-07T08:39:45;66.00;53.00;33.00
65360;PMS5003;51958;55.018;73.536;2022-08-07T08:42:15;66.50;53.00;33.00
65360;PMS5003;51958;55.018;73.536;2022-08-07T08:44:49;66.00;51.00;32.00
65360;PMS5003;51958;55.018;73.536;2022-08-07T08:47:25;65.00;51.00;32.00
65360;PMS5003;51958;55.018;73.536;2022-08-07T08:52:35;65.25;50.75;32.00
65360;PMS5003;51958;55.018;73.536;2022-08-07T08:55:05;66.00;52.75;32.50
65360;PMS5003;51958;55.018;73.536;2022-08-07T08:57:39;66.75;52.00;33.00
65360;PMS5003;51958;55.018;73.536;2022-08-07T09:00:07;65.75;51.00;32.00
65360;PMS5003;51958;55.018;73.536;2022-08-07T09:02:43;64.00;50.75;32.25
65360;PMS5003;51958;55.018;73.536;2022-08-07T09:05:40;63.75;50.00;32.00
65360;PMS5003;51958;55.018;73.536;2022-08-07T09:10:33;64.00;51.00;31.33
65360;PMS5003;51958;55.018;73.536;2022-08-07T09:20:41;61.00;48.00;29.00
65360;PMS5003;51958;55.018;73.536;2022-08-07T09:23:28;61.00;47.25;29.00
65360;PMS5003;51958;55.018;73.536;2022-08-07T09:28:28;55.75;44.00;27.00
65360;PMS5003;51958;55.018;73.536;2022-08-07T09:31:05;53.00;43.00;26.25
65360;PMS5003;51958;55.018;73.536;2022-08-07T09:38:53;55.00;43.00;27.00
65360;PMS5003;51958;55.018;73.536;2022-08-07T09:49:00;51.00;42.00;26.00
65360;PMS5003;51958;55.018;73.536;2022-08-07T09:54:20;49.00;40.50;25.75
65360;PMS5003;51958;55.018;73.536;2022-08-07T09:59:32;50.50;41.00;26.00
65360;PMS5003;51958;55.018;73.536;2022-08-07T10:02:18;50.00;40.00;26.00
65360;PMS5003;51958;55.018;73.536;2022-08-07T10:15:34;45.25;37.25;23.00
65360;PMS5003;51958;55.018;73.536;2022-08-07T10:23:41;49.00;39.50;25.00
65360;PMS5003;51958;55.018;73.536;2022-08-07T10:39:11;38.33;33.67;20.67
65360;PMS5003;51958;55.018;73.536;2022-08-07T10:41:45;40.00;34.00;21.00
65360;PMS5003;51958;55.018;73.536;2022-08-07T10:47:00;32.75;29.75;18.75
65360;PMS5003;51958;55.018;73.536;2022-08-07T10:49:39;34.00;30.00;19.00
65360;PMS5003;51958;55.018;73.536;2022-08-07T10:52:08;31.25;29.00;18.00
65360;PMS5003;51958;55.018;73.536;2022-08-07T10:55:02;32.00;29.00;18.00
65360;PMS5003;51958;55.018;73.536;2022-08-07T11:00:07;29.00;26.00;16.00
65360;PMS5003;51958;55.018;73.536;2022-08-07T11:10:08;30.75;29.00;17.00
65360;PMS5003;51958;55.018;73.536;2022-08-07T11:12:39;28.00;26.00;17.00
65360;PMS5003;51958;55.018;73.536;2022-08-07T11:15:11;28.50;25.00;17.25
65360;PMS5003;51958;55.018;73.536;2022-08-07T11:17:40;29.00;27.00;19.00
65360;PMS5003;51958;55.018;73.536;2022-08-07T11:20:17;32.75;29.00;19.00
65360;PMS5003;51958;55.018;73.536;2022-08-07T11:25:29;27.50;24.00;17.00
65360;PMS5003;51958;55.018;73.536;2022-08-07T11:28:00;27.00;23.00;17.00
65360;PMS5003;51958;55.018;73.536;2022-08-07T11:30:32;27.00;25.00;15.00
65360;PMS5003;51958;55.018;73.536;2022-08-07T11:35:29;23.00;20.00;9.00
65360;PMS5003;51958;55.018;73.536;2022-08-07T11:38:03;23.00;21.00;12.00
65360;PMS5003;51958;55.018;73.536;2022-08-07T11:40:35;22.50;21.00;10.00
65360;PMS5003;51958;55.018;73.536;2022-08-07T11:43:20;22.00;19.00;8.00
65360;PMS5003;51958;55.018;73.536;2022-08-07T11:53:49;20.00;19.00;8.50
65360;PMS5003;51958;55.018;73.536;2022-08-07T11:56:33;21.00;19.00;10.00
65360;PMS5003;51958;55.018;73.536;2022-08-07T11:59:05;20.75;17.00;9.00
65360;PMS5003;51958;55.018;73.536;2022-08-07T12:09:08;21.00;20.00;9.00
65360;PMS5003;51958;55.018;73.536;2022-08-07T12:11:52;22.00;22.00;8.00
65360;PMS5003;51958;55.018;73.536;2022-08-07T12:14:20;20.50;20.50;9.00
65360;PMS5003;51958;55.018;73.536;2022-08-07T12:17:06;22.00;22.00;10.50
65360;PMS5003;51958;55.018;73.536;2022-08-07T12:19:52;21.00;21.00;10.25
65360;PMS5003;51958;55.018;73.536;2022-08-07T12:27:57;19.00;18.00;9.00
65360;PMS5003;51958;55.018;73.536;2022-08-07T12:30:33;20.00;20.00;9.00
65360;PMS5003;51958;55.018;73.536;2022-08-07T12:33:09;19.00;19.00;8.00
65360;PMS5003;51958;55.018;73.536;2022-08-07T12:35:37;18.00;17.00;7.00
65360;PMS5003;51958;55.018;73.536;2022-08-07T12:38:04;19.00;17.00;7.25
65360;PMS5003;51958;55.018;73.536;2022-08-07T12:40:33;19.00;18.25;8.50
65360;PMS5003;51958;55.018;73.536;2022-08-07T12:43:11;20.25;20.00;10.00
65360;PMS5003;51958;55.018;73.536;2022-08-07T12:50:52;21.50;19.25;11.25
65360;PMS5003;51958;55.018;73.536;2022-08-07T12:53:28;24.00;22.50;13.00
65360;PMS5003;51958;55.018;73.536;2022-08-07T12:58:41;23.00;22.00;13.00
65360;PMS5003;51958;55.018;73.536;2022-08-07T13:13:50;32.00;30.67;19.00
65360;PMS5003;51958;55.018;73.536;2022-08-07T13:21:30;22.00;21.00;13.00
65360;PMS5003;51958;55.018;73.536;2022-08-07T13:26:27;23.00;21.67;11.00
65360;PMS5003;51958;55.018;73.536;2022-08-07T13:31:35;22.00;20.00;9.00
65360;PMS5003;51958;55.018;73.536;2022-08-07T13:34:15;22.00;19.75;9.00
65360;PMS5003;51958;55.018;73.536;2022-08-07T13:37:02;22.00;18.50;10.25
65360;PMS5003;51958;55.018;73.536;2022-08-07T13:39:38;19.00;18.00;9.00
65360;PMS5003;51958;55.018;73.536;2022-08-07T13:42:08;20.50;19.00;9.00
65360;PMS5003;51958;55.018;73.536;2022-08-07T13:44:38;18.00;18.00;8.00
65360;PMS5003;51958;55.018;73.536;2022-08-07T13:47:05;20.50;18.50;8.50
65360;PMS5003;51958;55.018;73.536;2022-08-07T13:49:36;21.00;18.00;10.00
65360;PMS5003;51958;55.018;73.536;2022-08-07T13:52:06;20.50;19.00;9.00
65360;PMS5003;51958;55.018;73.536;2022-08-07T13:54:33;23.25;21.50;10.25
65360;PMS5003;51958;55.018;73.536;2022-08-07T13:57:02;25.50;24.50;12.75
65360;PMS5003;51958;55.018;73.536;2022-08-07T13:59:33;27.00;23.00;14.00
65360;PMS5003;51958;55.018;73.536;2022-08-07T14:02:00;25.00;24.00;14.25
65360;PMS5003;51958;55.018;73.536;2022-08-07T14:04:46;25.00;24.00;15.00
65360;PMS5003;51958;55.018;73.536;2022-08-07T14:07:12;26.00;24.75;15.25
65360;PMS5003;51958;55.018;73.536;2022-08-07T14:09:39;27.00;25.00;15.00
65360;PMS5003;51958;55.018;73.536;2022-08-07T14:14:53;29.00;26.75;16.00
65360;PMS5003;51958;55.018;73.536;2022-08-07T14:17:22;35.00;30.75;18.75
65360;PMS5003;51958;55.018;73.536;2022-08-07T14:19:51;34.50;30.00;19.00
65360;PMS5003;51958;55.018;73.536;2022-08-07T14:22:19;40.25;33.00;21.00
65360;PMS5003;51958;55.018;73.536;2022-08-07T14:24:50;43.50;34.00;22.00
65360;PMS5003;51958;55.018;73.536;2022-08-07T14:27:20;44.00;35.00;22.00
65360;PMS5003;51958;55.018;73.536;2022-08-07T14:29:52;44.00;37.75;23.50
65360;PMS5003;51958;55.018;73.536;2022-08-07T14:32:19;44.00;37.00;25.00
65360;PMS5003;51958;55.018;73.536;2022-08-07T14:34:46;44.00;38.00;24.00
65360;PMS5003;51958;55.018;73.536;2022-08-07T14:37:13;43.00;37.00;24.00
65360;PMS5003;51958;55.018;73.536;2022-08-07T14:39:41;44.25;37.00;23.00
65360;PMS5003;51958;55.018;73.536;2022-08-07T14:42:09;44.00;37.25;24.00
65360;PMS5003;51958;55.018;73.536;2022-08-07T14:44:39;44.00;37.00;23.00
65360;PMS5003;51958;55.018;73.536;2022-08-07T14:47:08;42.00;36.00;23.00
65360;PMS5003;51958;55.018;73.536;2022-08-07T14:49:36;43.00;36.00;23.00
65360;PMS5003;51958;55.018;73.536;2022-08-07T14:52:07;48.75;40.00;25.00
65360;PMS5003;51958;55.018;73.536;2022-08-07T14:54:33;52.00;41.25;27.00
65360;PMS5003;51958;55.018;73.536;2022-08-07T14:57:00;50.25;42.00;26.00
65360;PMS5003;51958;55.018;73.536;2022-08-07T14:59:27;48.00;39.75;25.00
65360;PMS5003;51958;55.018;73.536;2022-08-07T15:02:07;47.50;40.00;25.00
65360;PMS5003;51958;55.018;73.536;2022-08-07T15:04:37;45.50;38.00;24.00
65360;PMS5003;51958;55.018;73.536;2022-08-07T15:07:16;44.00;36.75;24.00
65360;PMS5003;51958;55.018;73.536;2022-08-07T15:09:42;43.75;36.00;23.00
65360;PMS5003;51958;55.018;73.536;2022-08-07T15:12:14;41.00;35.00;23.00
65360;PMS5003;51958;55.018;73.536;2022-08-07T15:14:46;44.00;34.50;22.00
65360;PMS5003;51958;55.018;73.536;2022-08-07T15:17:15;44.00;35.25;23.00
65360;PMS5003;51958;55.018;73.536;2022-08-07T15:19:56;44.25;37.00;22.50
65360;PMS5003;51958;55.018;73.536;2022-08-07T15:22:23;43.00;34.00;22.00
65360;PMS5003;51958;55.018;73.536;2022-08-07T15:24:51;39.50;35.00;22.00
65360;PMS5003;51958;55.018;73.536;2022-08-07T15:27:24;40.75;34.50;21.00
65360;PMS5003;51958;55.018;73.536;2022-08-07T15:36:19;37.25;32.25;20.00
65360;PMS5003;51958;55.018;73.536;2022-08-07T16:25:14;41.00;34.00;21.75
65360;PMS5003;51958;55.018;73.536;2022-08-07T16:27:48;37.00;34.00;22.00
65360;PMS5003;51958;55.018;73.536;2022-08-07T16:30:16;39.00;34.00;21.75
65360;PMS5003;51958;55.018;73.536;2022-08-07T16:32:48;38.00;34.00;22.00
65360;PMS5003;51958;55.018;73.536;2022-08-07T16:35:21;38.25;33.75;22.00
65360;PMS5003;51958;55.018;73.536;2022-08-07T16:48:09;33.25;31.00;21.00
65360;PMS5003;51958;55.018;73.536;2022-08-07T17:02:38;32.00;29.00;18.25
65360;PMS5003;51958;55.018;73.536;2022-08-07T17:05:08;31.75;29.00;18.00
65360;PMS5003;51958;55.018;73.536;2022-08-07T17:15:43;28.25;27.00;15.00
65360;PMS5003;51958;55.018;73.536;2022-08-07T17:20:57;27.00;25.75;16.00
65360;PMS5003;51958;55.018;73.536;2022-08-07T17:28:27;29.00;28.00;16.00
65360;PMS5003;51958;55.018;73.536;2022-08-07T17:31:19;27.00;26.00;16.00
65360;PMS5003;51958;55.018;73.536;2022-08-07T17:36:40;26.00;24.00;15.00
65360;PMS5003;51958;55.018;73.536;2022-08-07T17:39:16;29.25;26.00;14.00
65360;PMS5003;51958;55.018;73.536;2022-08-07T17:41:58;27.00;24.00;15.00
65360;PMS5003;51958;55.018;73.536;2022-08-07T17:44:24;26.00;24.00;15.00
65360;PMS5003;51958;55.018;73.536;2022-08-07T17:46:57;26.25;24.50;15.75
65360;PMS5003;51958;55.018;73.536;2022-08-07T17:52:07;27.00;26.00;15.00
65360;PMS5003;51958;55.018;73.536;2022-08-07T17:54:36;26.00;26.00;15.00
65360;PMS5003;51958;55.018;73.536;2022-08-07T17:57:18;27.00;26.00;15.00
65360;PMS5003;51958;55.018;73.536;2022-08-07T17:59:51;26.50;26.00;15.00
65360;PMS5003;51958;55.018;73.536;2022-08-07T18:05:09;25.75;25.00;15.00